Time;durP1;ratioP1;P1;durP2;ratioP2;P2;SDS_P1;SDS_P2;PMS_P1;PMS_P2;Temp;Humidity;BMP_temperature;BMP_pressure;BME280_temperature;BME280_humidity;BME280_pressure;Samples;Min_cycle;Max_cycle;Signal;HPM_P1;HPM_P2
2022/05/19 00:01:13;;;;;;;44.00;23.52;;;15.00;99.90;;;;;;5094706;28;20447;-77
2022/05/19 00:03:39;;;;;;;42.35;24.02;;;15.00;99.90;;;;;;5081618;28;20067;-74
2022/05/19 00:06:07;;;;;;;42.97;24.10;;;15.10;99.90;;;;;;5110525;28;20060;-75
2022/05/19 00:08:33;;;;;;;36.08;24.63;;;15.20;99.90;;;;;;5099281;28;20418;-79
2022/05/19 00:11:03;;;;;;;47.08;26.52;;;15.20;99.90;;;;;;5095846;28;20506;-78
2022/05/19 00:13:30;;;;;;;48.70;25.88;;;15.20;99.90;;;;;;5089899;28;20050;-77
2022/05/19 00:15:56;;;;;;;49.05;25.08;;;15.20;99.90;;;;;;5073930;28;20478;-79
2022/05/19 00:18:22;;;;;;;44.20;25.55;;;15.20;99.90;;;;;;5075172;28;20035;-79
2022/05/19 00:20:48;;;;;;;38.85;25.05;;;15.20;99.90;;;;;;5094595;28;20044;-78
2022/05/19 00:23:14;;;;;;;47.10;25.20;;;15.20;99.90;;;;;;5077405;28;20024;-78
2022/05/19 00:25:43;;;;;;;41.67;24.92;;;15.20;99.90;;;;;;5092478;28;20066;-78
2022/05/19 00:28:09;;;;;;;46.30;24.13;;;15.20;99.90;;;;;;5078386;28;20201;-78
2022/05/19 00:30:54;;;;;;;44.33;24.48;;;15.20;99.90;;;;;;5098015;28;20061;-79
2022/05/19 00:33:19;;;;;;;39.38;24.73;;;15.20;99.90;;;;;;5094985;28;20046;-78
2022/05/19 00:35:45;;;;;;;40.78;24.13;;;15.10;99.90;;;;;;5093365;28;20035;-80
2022/05/19 00:38:11;;;;;;;40.42;25.45;;;15.10;99.90;;;;;;5092991;28;20043;-79
2022/05/19 00:40:37;;;;;;;44.90;24.98;;;15.20;99.90;;;;;;5071958;28;20028;-79
2022/05/19 00:43:04;;;;;;;48.42;25.63;;;15.20;99.90;;;;;;5088938;28;20097;-78
2022/05/19 00:45:44;;;;;;;46.10;25.95;;;15.10;99.90;;;;;;5076786;28;20111;-78
2022/05/19 00:48:19;;;;;;;56.13;26.75;;;15.20;99.90;;;;;;5100059;28;20050;-78
2022/05/19 00:50:59;;;;;;;49.72;27.48;;;15.20;99.90;;;;;;5096230;28;20399;-79
2022/05/19 00:53:52;;;;;;;49.03;27.75;;;15.10;99.90;;;;;;5096396;28;20113;-77
2022/05/19 00:56:26;;;;;;;42.80;26.52;;;15.10;99.90;;;;;;5083224;28;20491;-76
2022/05/19 00:59:10;;;;;;;46.25;27.40;;;15.00;99.90;;;;;;5075717;28;20548;-77
2022/05/19 01:01:39;;;;;;;43.53;26.73;;;15.00;99.90;;;;;;5100961;28;20028;-78
2022/05/19 01:04:25;;;;;;;42.38;26.70;;;14.90;99.90;;;;;;5097639;28;20050;-79
2022/05/19 01:06:56;;;;;;;50.28;27.55;;;14.90;99.90;;;;;;5098961;28;20510;-78
2022/05/19 01:09:21;;;;;;;43.05;26.67;;;15.00;99.90;;;;;;5079495;28;20133;-79
2022/05/19 01:11:52;;;;;;;41.97;26.42;;;14.90;99.90;;;;;;5102883;28;20122;-77
2022/05/19 01:14:17;;;;;;;42.25;26.98;;;14.80;99.90;;;;;;5082272;28;20050;-77
2022/05/19 01:16:43;;;;;;;46.88;28.33;;;14.90;99.90;;;;;;5075950;28;20391;-78
2022/05/19 01:19:31;;;;;;;46.72;29.38;;;14.90;99.90;;;;;;5074858;28;20572;-79
2022/05/19 01:22:08;;;;;;;48.55;29.20;;;14.90;99.90;;;;;;5100422;28;20051;-79
2022/05/19 01:25:09;;;;;;;48.72;29.45;;;14.90;99.90;;;;;;5094070;28;20043;-78
2022/05/19 01:27:36;;;;;;;44.88;29.48;;;15.00;99.90;;;;;;5099338;28;20124;-75
2022/05/19 01:30:04;;;;;;;48.33;29.08;;;15.00;99.90;;;;;;5110143;28;20042;-74
2022/05/19 01:32:30;;;;;;;41.47;28.85;;;15.00;99.90;;;;;;5115364;28;20059;-78
2022/05/19 01:34:57;;;;;;;46.60;29.00;;;15.00;99.90;;;;;;5089771;28;20418;-78
2022/05/19 01:37:24;;;;;;;45.70;28.45;;;15.00;99.90;;;;;;5106740;28;20104;-79
2022/05/19 01:39:54;;;;;;;45.10;28.00;;;14.90;99.90;;;;;;5104054;28;20374;-78
2022/05/19 01:42:52;;;;;;;45.78;28.08;;;14.90;99.90;;;;;;5089566;28;20047;-78
2022/05/19 01:45:41;;;;;;;46.15;28.63;;;14.90;99.90;;;;;;5094153;28;20419;-79
2022/05/19 01:48:14;;;;;;;47.47;30.90;;;14.90;99.90;;;;;;5100157;28;20393;-78
2022/05/19 01:50:50;;;;;;;58.80;34.25;;;15.00;99.90;;;;;;5092325;28;20154;-78
2022/05/19 01:53:26;;;;;;;54.97;32.03;;;15.00;99.90;;;;;;5101333;28;20046;-79
2022/05/19 01:56:13;;;;;;;55.45;34.13;;;14.90;99.90;;;;;;5095800;28;20040;-80
2022/05/19 01:58:50;;;;;;;54.80;34.65;;;15.00;99.90;;;;;;5091647;28;20098;-79
2022/05/19 02:01:19;;;;;;;53.53;34.58;;;15.10;99.90;;;;;;5102995;28;20066;-79
2022/05/19 02:03:54;;;;;;;53.20;35.90;;;15.20;99.90;;;;;;5079708;28;20059;-78
2022/05/19 02:06:27;;;;;;;57.50;33.78;;;15.00;99.90;;;;;;5093049;28;20084;-79
2022/05/19 02:09:04;;;;;;;57.25;33.90;;;15.10;99.90;;;;;;5076011;28;20101;-78
2022/05/19 02:11:33;;;;;;;53.63;34.28;;;15.10;99.90;;;;;;5093409;28;20075;-78
2022/05/19 02:14:05;;;;;;;51.72;33.35;;;15.20;99.90;;;;;;5110823;28;20048;-79
2022/05/19 02:16:32;;;;;;;59.25;35.33;;;15.10;99.90;;;;;;5105815;28;20043;-79
2022/05/19 02:18:58;;;;;;;54.85;34.08;;;15.20;99.90;;;;;;5093859;28;20087;-78
2022/05/19 02:21:25;;;;;;;70.20;38.97;;;15.20;99.90;;;;;;5101468;28;20036;-80
2022/05/19 02:23:52;;;;;;;65.82;39.92;;;15.20;99.90;;;;;;5097539;28;20036;-78
2022/05/19 02:26:18;;;;;;;65.40;41.08;;;15.20;99.90;;;;;;5100584;28;20062;-80
2022/05/19 02:29:00;;;;;;;70.05;42.10;;;15.30;99.90;;;;;;5089042;28;20043;-80
2022/05/19 02:31:26;;;;;;;76.47;48.35;;;15.20;99.90;;;;;;5093042;28;20062;-78
2022/05/19 02:33:52;;;;;;;72.43;49.97;;;15.30;99.90;;;;;;5091031;28;20040;-78
2022/05/19 02:36:18;;;;;;;83.53;52.22;;;15.30;99.90;;;;;;5091220;28;20089;-79
2022/05/19 02:38:43;;;;;;;80.65;51.00;;;15.30;99.90;;;;;;5085235;28;20051;-79
2022/05/19 02:41:09;;;;;;;77.53;50.10;;;15.20;99.90;;;;;;5095906;28;20032;-80
2022/05/19 02:43:35;;;;;;;80.50;51.05;;;15.30;99.90;;;;;;5102150;28;20104;-79
2022/05/19 02:46:00;;;;;;;76.25;51.67;;;15.30;99.90;;;;;;5100895;28;20379;-77
2022/05/19 02:48:26;;;;;;;88.38;53.22;;;15.30;99.90;;;;;;5084353;28;20036;-79
2022/05/19 02:50:52;;;;;;;76.65;52.22;;;15.30;99.90;;;;;;5092996;28;20036;-77
2022/05/19 02:53:19;;;;;;;78.70;50.72;;;15.40;99.90;;;;;;5078938;28;20443;-76
2022/05/19 02:55:46;;;;;;;81.15;50.63;;;15.40;99.90;;;;;;5092146;28;20063;-75
2022/05/19 02:58:14;;;;;;;78.40;50.95;;;15.60;99.90;;;;;;5082701;28;20036;-75
2022/05/19 03:00:42;;;;;;;79.57;50.90;;;15.50;99.90;;;;;;5097046;28;20440;-78
2022/05/19 03:03:08;;;;;;;86.13;52.45;;;15.50;99.90;;;;;;5103522;28;20043;-79
2022/05/19 03:05:34;;;;;;;76.57;49.70;;;15.50;99.90;;;;;;5082790;28;20040;-78
2022/05/19 03:08:00;;;;;;;72.47;49.17;;;15.50;99.90;;;;;;5095333;28;20406;-77
2022/05/19 03:10:26;;;;;;;73.63;49.13;;;15.50;99.90;;;;;;5099498;28;20051;-78
2022/05/19 03:12:55;;;;;;;74.50;47.00;;;15.60;99.90;;;;;;5087394;28;20058;-79
2022/05/19 03:15:21;;;;;;;76.50;48.47;;;15.60;99.90;;;;;;5058227;28;20040;-79
2022/05/19 03:17:47;;;;;;;69.25;46.20;;;15.60;99.90;;;;;;5077062;28;20055;-79
2022/05/19 03:20:13;;;;;;;69.43;45.92;;;15.50;99.90;;;;;;5082382;28;20122;-79
2022/05/19 03:22:39;;;;;;;69.15;45.08;;;15.50;99.90;;;;;;5097320;28;20478;-79
2022/05/19 03:25:06;;;;;;;69.97;43.97;;;15.50;99.90;;;;;;5093502;28;20039;-78
2022/05/19 03:27:32;;;;;;;71.07;45.53;;;15.50;99.90;;;;;;5099585;28;20110;-79
2022/05/19 03:30:02;;;;;;;67.55;43.72;;;15.60;99.90;;;;;;5106000;28;20259;-80
2022/05/19 03:32:28;;;;;;;70.13;44.47;;;15.60;99.90;;;;;;5106987;28;20043;-78
2022/05/19 03:34:54;;;;;;;66.45;45.58;;;15.50;99.90;;;;;;5106783;28;20043;-78
2022/05/19 03:37:19;;;;;;;70.78;45.60;;;15.50;99.90;;;;;;5074712;28;20089;-79
2022/05/19 03:39:45;;;;;;;66.80;43.25;;;15.60;99.90;;;;;;5079415;28;20059;-78
2022/05/19 03:42:11;;;;;;;69.90;45.97;;;15.50;99.90;;;;;;5097858;28;20039;-78
2022/05/19 03:44:37;;;;;;;70.55;45.10;;;15.60;99.90;;;;;;5078272;28;20130;-80
2022/05/19 03:47:04;;;;;;;67.80;43.38;;;15.60;99.90;;;;;;5099123;28;20131;-78
2022/05/19 03:49:30;;;;;;;64.70;42.60;;;15.70;99.90;;;;;;5098112;28;20036;-77
2022/05/19 03:51:56;;;;;;;69.18;44.10;;;15.70;99.90;;;;;;5097432;28;20049;-77
2022/05/19 03:54:22;;;;;;;71.70;43.65;;;15.60;99.90;;;;;;5074115;28;20421;-77
2022/05/19 03:56:47;;;;;;;67.07;44.13;;;15.70;99.90;;;;;;5093643;28;20051;-78
2022/05/19 03:59:13;;;;;;;67.35;41.63;;;15.80;99.90;;;;;;5103868;28;20064;-78
2022/05/19 04:01:40;;;;;;;64.35;41.80;;;15.80;99.90;;;;;;5107574;28;20035;-78
2022/05/19 04:04:07;;;;;;;64.18;40.42;;;15.90;99.90;;;;;;5104204;28;20445;-79
2022/05/19 04:06:34;;;;;;;64.20;40.47;;;15.90;99.90;;;;;;5077115;28;20105;-78
2022/05/19 04:09:00;;;;;;;63.60;41.25;;;15.80;99.90;;;;;;5103977;28;20492;-78
2022/05/19 04:11:26;;;;;;;62.35;42.17;;;15.90;99.90;;;;;;5089358;28;20040;-79
2022/05/19 04:13:52;;;;;;;67.45;42.25;;;16.00;99.90;;;;;;5079592;28;20051;-79
2022/05/19 04:16:19;;;;;;;62.28;41.35;;;16.10;99.90;;;;;;5106559;28;20423;-74
2022/05/19 04:18:44;;;;;;;68.45;43.60;;;16.10;99.90;;;;;;5114376;28;20044;-75
2022/05/19 04:21:10;;;;;;;63.90;41.83;;;16.10;99.90;;;;;;5103995;28;20050;-78
2022/05/19 04:23:36;;;;;;;64.88;43.30;;;16.10;99.90;;;;;;5092232;28;20047;-80
2022/05/19 04:26:04;;;;;;;68.68;43.08;;;16.20;99.90;;;;;;5094275;28;20444;-78
2022/05/19 04:28:29;;;;;;;71.32;43.78;;;16.10;99.90;;;;;;5088286;28;20044;-78
2022/05/19 04:30:56;;;;;;;73.60;44.13;;;16.20;99.90;;;;;;5078649;28;20075;-79
2022/05/19 04:33:21;;;;;;;74.68;43.63;;;16.30;99.90;;;;;;5083554;28;20168;-80
2022/05/19 04:35:47;;;;;;;67.53;43.72;;;16.40;99.90;;;;;;5081026;28;20173;-77
2022/05/19 04:38:15;;;;;;;69.38;44.80;;;16.50;99.90;;;;;;5077327;28;20062;-80
2022/05/19 04:40:47;;;;;;;71.90;45.20;;;16.50;99.90;;;;;;5091751;28;20075;-77
2022/05/19 04:43:13;;;;;;;69.00;46.92;;;16.60;99.90;;;;;;5086805;28;20120;-78
2022/05/19 04:45:39;;;;;;;75.82;48.20;;;16.70;99.90;;;;;;5092286;28;20048;-79
2022/05/19 04:48:05;;;;;;;69.72;46.92;;;16.80;99.90;;;;;;5085819;28;20402;-76
2022/05/19 04:50:31;;;;;;;77.03;47.65;;;16.90;99.90;;;;;;5074935;28;20051;-79
2022/05/19 04:52:59;;;;;;;72.85;46.67;;;17.10;99.90;;;;;;5091569;28;22409;-77
2022/05/19 04:55:26;;;;;;;73.70;48.30;;;17.20;99.90;;;;;;5099063;28;20159;-77
2022/05/19 04:57:52;;;;;;;73.90;48.60;;;17.30;99.90;;;;;;5081518;28;20040;-77
2022/05/19 05:00:19;;;;;;;73.47;48.88;;;17.40;99.90;;;;;;5104824;28;20039;-79
2022/05/19 05:02:45;;;;;;;78.45;49.17;;;17.40;99.90;;;;;;5079046;28;20045;-80
2022/05/19 05:05:11;;;;;;;69.55;48.05;;;17.40;99.90;;;;;;5101479;28;20040;-79
2022/05/19 05:07:37;;;;;;;73.28;48.05;;;17.50;99.90;;;;;;5093033;28;20060;-79
2022/05/19 05:10:03;;;;;;;69.30;47.28;;;17.50;99.90;;;;;;5096979;28;20123;-78
2022/05/19 05:12:29;;;;;;;75.88;48.30;;;17.60;99.90;;;;;;5094013;28;20083;-78
2022/05/19 05:14:54;;;;;;;75.85;47.00;;;17.70;99.90;;;;;;5078060;28;20489;-78
2022/05/19 05:17:21;;;;;;;31.30;21.40;;;17.70;99.90;;;;;;5064781;28;20339;-79
2022/05/19 05:19:48;;;;;;;45.88;31.52;;;17.80;99.90;;;;;;5078414;28;20123;-80
2022/05/19 05:22:14;;;;;;;56.45;35.28;;;18.00;99.90;;;;;;5094308;28;20054;-81
2022/05/19 05:24:40;;;;;;;46.13;33.08;;;18.10;99.90;;;;;;5082286;28;20044;-81
2022/05/19 05:27:08;;;;;;;52.33;36.58;;;18.20;99.90;;;;;;5089130;28;20063;-79
2022/05/19 05:29:35;;;;;;;51.00;35.78;;;18.30;99.90;;;;;;5096220;28;20039;-80
2022/05/19 05:32:02;;;;;;;48.10;35.22;;;18.50;99.90;;;;;;5093612;28;20048;-80
2022/05/19 05:34:28;;;;;;;53.10;39.38;;;18.60;99.90;;;;;;5098654;28;20329;-80
2022/05/19 05:36:54;;;;;;;57.78;39.65;;;18.60;99.90;;;;;;5084524;28;20046;-81
2022/05/19 05:39:20;;;;;;;55.20;37.45;;;18.70;99.90;;;;;;5075654;28;20548;-81
2022/05/19 05:41:46;;;;;;;54.60;36.28;;;18.80;99.90;;;;;;5078982;28;20036;-79
2022/05/19 05:44:12;;;;;;;56.85;40.00;;;18.90;99.90;;;;;;5084847;28;20050;-78
2022/05/19 05:46:38;;;;;;;62.83;39.55;;;18.90;99.90;;;;;;5095567;28;20048;-79
2022/05/19 05:49:05;;;;;;;58.17;37.63;;;19.00;99.90;;;;;;5079071;28;20504;-81
2022/05/19 05:51:30;;;;;;;49.88;36.50;;;19.10;99.90;;;;;;5094647;28;20359;-79
2022/05/19 05:53:56;;;;;;;49.10;35.70;;;19.20;99.90;;;;;;5073206;28;20044;-81
2022/05/19 05:56:23;;;;;;;52.38;35.83;;;19.30;99.90;;;;;;5075364;28;20047;-80
2022/05/19 05:58:48;;;;;;;44.83;33.22;;;19.30;99.90;;;;;;5084708;28;20778;-79
2022/05/19 06:01:16;;;;;;;44.70;32.95;;;19.30;99.90;;;;;;5082873;28;20172;-80
2022/05/19 06:03:47;;;;;;;52.15;32.92;;;19.30;99.90;;;;;;5083771;28;20052;-79
2022/05/19 06:06:15;;;;;;;50.22;31.92;;;19.40;99.90;;;;;;5092112;28;20073;-78
2022/05/19 06:08:41;;;;;;;45.15;30.73;;;19.50;99.90;;;;;;5091286;28;20509;-79
2022/05/19 06:11:07;;;;;;;39.83;28.63;;;19.60;99.90;;;;;;5094970;28;20052;-79
2022/05/19 06:13:33;;;;;;;42.20;29.30;;;19.60;99.90;;;;;;5077188;28;20051;-78
2022/05/19 06:15:59;;;;;;;46.83;27.00;;;19.60;99.90;;;;;;5075606;28;20058;-78
2022/05/19 06:18:28;;;;;;;40.00;26.02;;;19.60;99.90;;;;;;5095453;28;20031;-78
2022/05/19 06:20:54;;;;;;;36.33;26.15;;;19.70;99.90;;;;;;5083006;28;20371;-78
2022/05/19 06:23:20;;;;;;;37.90;25.23;;;19.80;99.90;;;;;;5077108;28;20123;-78
2022/05/19 06:25:46;;;;;;;34.53;25.70;;;20.00;99.90;;;;;;5082348;28;20081;-78
2022/05/19 06:28:13;;;;;;;34.63;24.73;;;19.90;99.90;;;;;;5077490;28;20119;-77
2022/05/19 06:30:39;;;;;;;40.42;23.58;;;20.00;99.90;;;;;;5097773;28;20543;-78
2022/05/19 06:33:05;;;;;;;38.38;24.13;;;20.00;99.90;;;;;;5091185;28;20051;-79
2022/05/19 06:35:32;;;;;;;33.47;23.05;;;20.00;99.90;;;;;;5084968;28;20082;-79
2022/05/19 06:37:59;;;;;;;29.40;21.45;;;19.90;99.90;;;;;;5075619;28;20555;-79
2022/05/19 06:40:27;;;;;;;29.80;22.20;;;19.90;99.90;;;;;;5077807;28;20346;-78
2022/05/19 06:42:53;;;;;;;28.02;21.13;;;19.80;99.90;;;;;;5095378;28;20044;-79
2022/05/19 06:45:25;;;;;;;34.40;22.10;;;19.80;99.90;;;;;;5095789;28;20637;-78
2022/05/19 06:47:52;;;;;;;30.92;22.60;;;19.70;99.90;;;;;;5083556;28;20043;-77
2022/05/19 06:50:19;;;;;;;29.75;22.48;;;19.60;99.90;;;;;;5084632;28;20122;-77
2022/05/19 06:52:49;;;;;;;30.38;22.23;;;19.50;99.90;;;;;;5085852;28;20048;-79
2022/05/19 06:55:17;;;;;;;31.33;22.08;;;19.40;99.90;;;;;;5095754;28;20056;-81
2022/05/19 06:57:43;;;;;;;32.97;23.20;;;19.20;99.90;;;;;;5081135;28;20466;-79
2022/05/19 07:00:13;;;;;;;31.33;22.00;;;19.10;99.90;;;;;;5076307;28;20564;-79
2022/05/19 07:06:04;;;;;;;29.80;21.45;;;18.60;99.90;;;;;;5105163;28;20051;-77
2022/05/19 07:08:30;;;;;;;27.15;19.63;;;18.60;99.90;;;;;;5101492;28;20047;-75
2022/05/19 07:10:55;;;;;;;28.58;20.50;;;18.70;99.90;;;;;;5094837;28;20112;-78
2022/05/19 07:13:21;;;;;;;31.05;21.17;;;18.70;99.90;;;;;;5077963;28;20051;-76
2022/05/19 07:15:47;;;;;;;28.83;18.83;;;18.70;99.90;;;;;;5081541;28;20035;-80
2022/05/19 07:18:13;;;;;;;29.52;20.55;;;18.70;99.90;;;;;;5094427;28;20036;-78
2022/05/19 07:20:44;;;;;;;26.83;20.08;;;18.70;99.90;;;;;;5073018;28;20503;-80
2022/05/19 07:23:20;;;;;;;30.58;20.60;;;18.80;99.90;;;;;;5094066;28;20443;-77
2022/05/19 07:25:47;;;;;;;26.27;20.55;;;18.90;99.90;;;;;;5077088;28;20055;-77
2022/05/19 07:28:14;;;;;;;27.13;19.80;;;19.10;99.90;;;;;;5078001;28;20052;-79
2022/05/19 07:30:41;;;;;;;33.35;19.75;;;19.00;99.90;;;;;;5092422;28;20048;-77
2022/05/19 07:33:11;;;;;;;27.80;20.30;;;19.10;99.90;;;;;;5075995;28;20083;-81
2022/05/19 07:35:37;;;;;;;25.63;17.70;;;19.10;99.90;;;;;;5078642;28;20048;-81
2022/05/19 07:38:03;;;;;;;34.17;21.13;;;18.90;99.90;;;;;;5088165;28;20036;-80
2022/05/19 07:40:29;;;;;;;31.15;19.80;;;19.00;99.90;;;;;;5090389;28;20063;-78
2022/05/19 07:43:35;;;;;;;32.47;20.50;;;18.80;99.90;;;;;;5075527;28;20048;-79
2022/05/19 07:45:41;;;;;;;34.15;21.60;;;18.80;99.90;;;;;;5078498;28;20071;-83
2022/05/19 07:48:10;;;;;;;29.88;21.30;;;18.70;99.90;;;;;;5095962;28;20046;-92
2022/05/19 07:50:36;;;;;;;23.88;16.38;;;18.80;99.90;;;;;;5068451;28;20070;-84
2022/05/19 07:53:02;;;;;;;21.58;12.82;;;18.80;99.90;;;;;;5076783;28;20056;-84
2022/05/19 07:55:27;;;;;;;24.92;13.88;;;18.70;99.90;;;;;;5093206;28;20497;-86
2022/05/19 07:57:53;;;;;;;23.05;13.90;;;18.60;99.90;;;;;;5073123;28;20495;-83
2022/05/19 08:00:19;;;;;;;24.75;15.18;;;18.80;99.90;;;;;;5092343;28;20439;-83
2022/05/19 08:02:46;;;;;;;18.75;13.00;;;19.00;99.90;;;;;;5091950;28;20044;-84
2022/05/19 08:05:15;;;;;;;26.27;14.70;;;19.10;99.90;;;;;;5075518;28;20044;-83
2022/05/19 08:07:40;;;;;;;18.67;11.77;;;19.40;99.90;;;;;;5076093;28;20064;-84
2022/05/19 08:10:24;;;;;;;20.05;11.75;;;19.80;99.90;;;;;;5080098;28;20139;-84
2022/05/19 08:15:41;;;;;;;23.67;11.48;;;19.90;99.90;;;;;;5093849;28;20032;-83
2022/05/19 08:18:19;;;;;;;19.13;10.00;;;19.90;99.90;;;;;;5078433;28;20048;-82
2022/05/19 08:20:54;;;;;;;20.02;11.43;;;19.80;99.90;;;;;;5096283;28;20032;-84
2022/05/19 08:23:24;;;;;;;25.75;11.57;;;19.60;99.90;;;;;;5078449;28;20055;-84
2022/05/19 08:25:50;;;;;;;23.63;9.88;;;19.60;99.90;;;;;;5106940;28;20067;-83
2022/05/19 08:28:18;;;;;;;18.58;9.13;;;19.50;99.90;;;;;;5118343;28;20040;-77
2022/05/19 08:30:47;;;;;;;19.75;9.60;;;19.60;99.90;;;;;;5110247;28;20103;-76
2022/05/19 08:33:34;;;;;;;21.67;9.10;;;19.80;99.90;;;;;;5082440;28;20085;-84
2022/05/19 08:35:59;;;;;;;28.15;12.30;;;20.00;99.90;;;;;;5097413;28;20070;-81
2022/05/19 08:38:26;;;;;;;32.55;9.88;;;20.10;99.90;;;;;;5097771;28;20431;-84
2022/05/19 08:41:11;;;;;;;17.92;9.60;;;20.10;99.90;;;;;;5079391;28;20046;-81
2022/05/19 08:43:58;;;;;;;20.67;9.90;;;20.30;99.90;;;;;;5083304;28;20112;-82
2022/05/19 08:46:30;;;;;;;20.98;10.68;;;20.30;99.90;;;;;;5094690;28;20052;-83
2022/05/19 08:49:01;;;;;;;21.20;9.98;;;20.40;99.90;;;;;;5095912;27;20517;-81
2022/05/19 08:51:33;;;;;;;18.38;9.57;;;20.60;99.90;;;;;;5079918;28;20054;-83
2022/05/19 08:54:05;;;;;;;21.08;8.65;;;20.70;99.90;;;;;;5095830;28;20069;-82
2022/05/19 08:57:03;;;;;;;20.95;9.75;;;20.90;99.90;;;;;;5098403;28;20102;-81
2022/05/19 08:59:47;;;;;;;20.27;10.20;;;21.10;99.90;;;;;;5104512;27;20058;-81
2022/05/19 09:02:18;;;;;;;21.60;9.87;;;21.30;99.90;;;;;;5080454;28;20126;-80
2022/05/19 09:05:11;;;;;;;21.45;9.70;;;21.30;99.90;;;;;;5101973;27;20059;-82
2022/05/19 09:07:58;;;;;;;19.20;8.43;;;21.50;99.90;;;;;;5127004;27;20428;-81
2022/05/19 09:10:51;;;;;;;17.23;8.65;;;21.50;99.90;;;;;;5111853;27;20076;-82
2022/05/19 09:13:53;;;;;;;14.15;7.88;;;21.40;99.90;;;;;;5086739;27;20035;-79
2022/05/19 09:16:24;;;;;;;14.55;7.80;;;21.50;99.90;;;;;;5087971;27;20497;-81
2022/05/19 09:19:04;;;;;;;14.18;7.03;;;21.50;99.90;;;;;;5090735;27;20047;-80
2022/05/19 09:21:30;;;;;;;16.90;7.10;;;21.60;99.90;;;;;;5078627;28;20075;-79
2022/05/19 09:23:56;;;;;;;17.92;6.72;;;21.60;99.90;;;;;;5100313;27;20066;-80
2022/05/19 09:26:50;;;;;;;14.68;5.90;;;21.60;99.90;;;;;;5091554;27;20056;-79
2022/05/19 09:29:20;;;;;;;14.52;6.10;;;22.00;99.90;;;;;;5088139;27;20454;-80
2022/05/19 09:31:53;;;;;;;20.25;6.78;;;22.00;99.90;;;;;;5099287;28;20118;-83
2022/05/19 09:34:25;;;;;;;20.27;6.50;;;22.20;99.90;;;;;;5087690;27;20058;-81
2022/05/19 09:37:00;;;;;;;13.13;6.18;;;22.10;99.90;;;;;;5101922;27;20149;-82
2022/05/19 09:39:33;;;;;;;13.45;5.72;;;22.20;99.90;;;;;;5087259;27;20047;-82
2022/05/19 09:42:05;;;;;;;14.20;6.40;;;22.20;99.90;;;;;;5101443;27;20039;-82
2022/05/19 09:44:32;;;;;;;13.13;6.47;;;22.40;99.90;;;;;;5084283;27;20040;-85
2022/05/19 09:46:58;;;;;;;10.13;5.78;;;22.60;99.90;;;;;;5120370;27;20049;-81
2022/05/19 09:49:24;;;;;;;11.27;5.75;;;22.90;99.90;;;;;;5092494;27;20071;-78
2022/05/19 09:51:51;;;;;;;17.02;7.05;;;23.10;99.90;;;;;;5130170;27;20046;-76
2022/05/19 09:54:16;;;;;;;13.05;6.38;;;23.10;99.90;;;;;;5092063;28;20123;-77
2022/05/19 09:56:49;;;;;;;12.73;6.30;;;23.30;99.90;;;;;;5104714;27;20138;-80
2022/05/19 09:59:24;;;;;;;12.73;6.63;;;23.60;99.90;;;;;;5105571;27;20103;-78
2022/05/19 10:02:36;;;;;;;11.38;5.82;;;23.80;99.90;;;;;;5092898;27;20058;-79
2022/05/19 10:05:37;;;;;;;12.50;5.57;;;24.00;99.90;;;;;;5063623;28;20105;-83
2022/05/19 10:08:14;;;;;;;10.65;5.53;;;24.10;99.90;;;;;;5043649;28;20403;-78
2022/05/19 10:11:01;;;;;;;13.23;5.35;;;24.10;99.90;;;;;;5038307;28;20141;-81
2022/05/19 10:14:06;;;;;;;10.02;5.35;;;24.20;99.90;;;;;;5046178;28;20054;-79
2022/05/19 10:16:46;;;;;;;16.70;4.43;;;24.10;99.90;;;;;;5046227;28;20045;-78
2022/05/19 10:19:38;;;;;;;11.48;4.63;;;24.30;99.90;;;;;;5041866;28;20094;-78
2022/05/19 10:22:24;;;;;;;9.02;4.13;;;24.50;99.90;;;;;;5043689;28;20040;-80
2022/05/19 10:25:17;;;;;;;7.68;3.80;;;25.00;99.90;;;;;;5044205;28;20418;-79
2022/05/19 10:31:13;;;;;;;6.40;3.50;;;25.10;99.90;;;;;;5068989;28;20056;-80
2022/05/19 10:34:06;;;;;;;8.40;3.60;;;25.50;99.90;;;;;;5033906;28;20384;-80
2022/05/19 10:37:37;;;;;;;5.63;3.58;;;25.80;99.90;;;;;;5102516;27;20478;-81
2022/05/19 10:40:33;;;;;;;6.10;3.60;;;26.10;99.90;;;;;;4956209;28;20055;-80
2022/05/19 10:43:20;;;;;;;7.28;3.08;;;26.10;99.90;;;;;;4934357;28;20047;-80
2022/05/19 10:45:50;;;;;;;13.68;3.83;;;26.10;99.90;;;;;;4934211;28;20082;-80
2022/05/19 10:48:36;;;;;;;21.70;4.40;;;25.90;99.90;;;;;;4947707;28;20564;-80
2022/05/19 10:51:24;;;;;;;5.13;3.80;;;25.80;99.90;;;;;;4948937;28;20043;-80
2022/05/19 10:54:17;;;;;;;10.63;4.20;;;25.90;99.90;;;;;;4944719;28;20608;-81
2022/05/19 10:57:20;;;;;;;6.60;3.80;;;25.80;99.90;;;;;;4948920;28;20383;-79
2022/05/19 10:59:57;;;;;;;9.60;4.53;;;26.00;99.90;;;;;;4957804;28;20054;-78
2022/05/19 11:03:02;;;;;;;9.63;6.13;;;26.50;99.90;;;;;;4952830;28;20054;-77
2022/05/19 11:05:45;;;;;;;20.63;8.00;;;26.60;99.90;;;;;;4948403;28;20453;-77
2022/05/19 11:08:13;;;;;;;9.40;6.75;;;26.30;99.90;;;;;;4953751;28;20055;-77
2022/05/19 11:10:45;;;;;;;10.15;5.38;;;26.60;99.90;;;;;;4969824;28;20149;-78
2022/05/19 11:13:38;;;;;;;7.68;5.05;;;26.70;99.90;;;;;;5005146;28;20105;-73
2022/05/19 11:16:27;;;;;;;8.70;5.80;;;26.80;99.90;;;;;;5003936;28;20096;-73
2022/05/19 11:19:00;;;;;;;9.35;6.10;;;26.90;99.90;;;;;;5103158;27;20096;-75
2022/05/19 11:21:28;;;;;;;9.43;5.82;;;26.90;99.90;;;;;;5094668;27;20485;-75
2022/05/19 11:23:59;;;;;;;9.57;5.60;;;27.30;99.90;;;;;;5096382;28;20050;-76
2022/05/19 11:26:32;;;;;;;5.82;4.47;;;27.00;99.90;;;;;;5080815;27;20141;-77
2022/05/19 11:29:19;;;;;;;9.98;4.82;;;27.10;99.90;;;;;;5094888;27;20078;-76
2022/05/19 11:31:59;;;;;;;7.57;4.70;;;27.10;99.90;;;;;;5092678;28;20055;-77
2022/05/19 11:34:44;;;;;;;8.45;4.80;;;27.20;99.90;;;;;;5109817;27;20059;-77
2022/05/19 11:37:19;;;;;;;;;;;27.40;99.90;;;;;;5104513;27;20554;-77
2022/05/19 11:39:57;;;;;;;8.68;4.75;;;26.80;99.90;;;;;;5089218;28;19923;-77
2022/05/19 11:42:35;;;;;;;12.88;7.10;;;26.70;99.90;;;;;;5094871;27;20035;-77
2022/05/19 11:45:07;;;;;;;11.88;7.07;;;26.60;99.90;;;;;;5103313;28;20031;-76
2022/05/19 11:56:18;;;;;;;11.18;6.57;;;27.10;99.90;;;;;;5104265;27;20081;-77
2022/05/19 11:58:46;;;;;;;10.82;6.85;;;27.10;99.90;;;;;;5081604;27;20040;-80
2022/05/19 12:01:37;;;;;;;11.00;7.10;;;27.20;99.90;;;;;;5092725;28;20036;-76
2022/05/19 12:04:25;;;;;;;11.23;7.18;;;27.30;99.90;;;;;;5093878;27;20043;-77
2022/05/19 12:07:06;;;;;;;11.82;7.22;;;26.90;99.90;;;;;;5075997;27;20067;-77
2022/05/19 12:09:46;;;;;;;11.18;7.13;;;26.80;99.90;;;;;;5082026;28;20059;-77
2022/05/19 12:12:23;;;;;;;10.00;7.72;;;26.50;99.90;;;;;;5086645;28;20062;-77
2022/05/19 12:15:11;;;;;;;9.20;7.72;;;26.50;99.90;;;;;;5096636;28;20342;-79
2022/05/19 12:17:45;;;;;;;10.23;7.93;;;26.00;99.90;;;;;;5004084;28;20530;-75
2022/05/19 12:20:30;;;;;;;;;;;25.90;99.90;;;;;;5027924;28;20455;-79
2022/05/19 12:23:24;;;;;;;10.48;7.80;;;25.70;99.90;;;;;;5007574;28;19925;-78
2022/05/19 12:26:22;;;;;;;13.85;8.60;;;25.50;99.90;;;;;;4989281;28;20103;-78
2022/05/19 12:28:53;;;;;;;14.30;10.02;;;25.30;99.90;;;;;;4961067;28;20105;-78
2022/05/19 12:38:05;;;;;;;14.48;9.50;;;24.90;99.90;;;;;;4967812;28;20101;-73
2022/05/19 12:40:53;;;;;;;17.83;9.98;;;24.70;99.90;;;;;;4948973;28;20051;-75
2022/05/19 12:43:21;;;;;;;20.55;10.60;;;24.60;99.90;;;;;;4951767;28;20185;-74
2022/05/19 12:46:01;;;;;;;12.32;9.25;;;24.50;99.90;;;;;;4926740;28;20532;-74
2022/05/19 12:48:32;;;;;;;13.23;9.43;;;24.20;99.90;;;;;;4946542;28;20442;-75
2022/05/19 12:51:08;;;;;;;14.48;9.88;;;24.00;99.90;;;;;;4955451;28;20046;-75
2022/05/19 12:53:50;;;;;;;18.17;9.90;;;23.80;99.90;;;;;;4949014;28;20146;-75
2022/05/19 12:56:41;;;;;;;26.15;9.20;;;23.50;99.90;;;;;;5017008;28;20061;-76
2022/05/19 12:59:21;;;;;;;14.90;5.93;;;23.20;99.90;;;;;;5019697;28;20055;-81
2022/05/19 13:01:50;;;;;;;6.50;2.95;;;22.30;99.90;;;;;;5015605;28;20079;-79
2022/05/19 13:04:37;;;;;;;11.38;2.55;;;21.50;99.90;;;;;;5037980;28;20064;-80
2022/05/19 13:07:22;;;;;;;7.13;1.70;;;20.90;99.90;;;;;;5083725;28;20518;-79
2022/05/19 13:10:22;;;;;;;7.35;2.13;;;20.40;99.90;;;;;;5095431;28;20052;-78
2022/05/19 13:13:07;;;;;;;6.72;2.67;;;20.00;99.90;;;;;;5094396;28;20100;-76
2022/05/19 13:15:45;;;;;;;9.85;4.38;;;19.70;99.90;;;;;;5092494;28;20448;-78
2022/05/19 13:18:12;;;;;;;9.32;5.68;;;19.70;99.90;;;;;;5097251;28;20088;-76
2022/05/19 13:20:39;;;;;;;14.02;5.75;;;19.60;99.90;;;;;;5100581;27;20402;-76
2022/05/19 13:23:16;;;;;;;10.02;5.78;;;19.40;99.90;;;;;;5100734;27;20078;-76